createdAt,value
2023-07-10T00:01:52.580Z,7.25
2023-07-10T00:04:21.335Z,9.20
2023-07-10T00:06:49.339Z,13.65
2023-07-10T00:09:16.437Z,9.40
2023-07-10T00:11:45.058Z,11.73
2023-07-10T00:14:23.905Z,10.82
2023-07-10T00:16:52.733Z,9.38
2023-07-10T00:19:23.826Z,9.88
2023-07-10T00:21:52.011Z,9.15
2023-07-10T00:24:19.261Z,12.23
2023-07-10T00:26:46.233Z,9.60
2023-07-10T00:29:32.863Z,8.30
2023-07-10T00:32:03.536Z,11.60
2023-07-10T00:34:30.575Z,8.52
2023-07-10T00:36:57.719Z,7.50
2023-07-10T00:39:28.950Z,9.77
2023-07-10T00:42:02.200Z,8.70
2023-07-10T00:44:46.927Z,9.57
2023-07-10T00:47:14.346Z,12.13
2023-07-10T00:50:01.336Z,10.70
2023-07-10T00:52:32.091Z,8.13
2023-07-10T00:55:03.508Z,12.95
2023-07-10T00:57:37.630Z,11.32
2023-07-10T01:00:20.198Z,9.07
2023-07-10T01:05:16.705Z,11.38
2023-07-10T01:07:48.544Z,10.45
2023-07-10T01:10:15.785Z,12.30
2023-07-10T01:12:45.027Z,10.73
2023-07-10T01:15:13.582Z,12.00
2023-07-10T01:17:40.927Z,9.68
2023-07-10T01:20:33.365Z,11.40
2023-07-10T01:23:01.426Z,13.02
2023-07-10T01:25:35.106Z,7.60
2023-07-10T01:28:10.553Z,8.88
2023-07-10T01:30:40.245Z,10.70
2023-07-10T01:33:21.409Z,8.18
2023-07-10T01:35:51.682Z,10.02
2023-07-10T01:38:19.279Z,10.63
2023-07-10T01:40:54.255Z,8.55
2023-07-10T01:43:21.426Z,10.85
2023-07-10T01:45:50.259Z,9.63
2023-07-10T01:48:22.060Z,10.73
2023-07-10T01:50:49.307Z,13.15
2023-07-10T01:53:16.671Z,8.57
2023-07-10T01:55:46.799Z,8.35
2023-07-10T01:58:14.595Z,11.23
2023-07-10T02:00:42.518Z,13.70
2023-07-10T02:03:10.563Z,10.70
2023-07-10T02:05:45.940Z,8.15
2023-07-10T02:08:13.196Z,12.57
2023-07-10T02:10:45.143Z,9.73
2023-07-10T02:13:13.342Z,11.95
2023-07-10T02:15:41.657Z,10.57
2023-07-10T02:18:08.746Z,10.00
2023-07-10T02:20:35.771Z,9.35
2023-07-10T02:23:02.788Z,9.05
2023-07-10T02:25:30.293Z,10.35
2023-07-10T02:27:57.565Z,10.85
2023-07-10T02:30:24.555Z,10.20
2023-07-10T02:32:51.725Z,11.93
2023-07-10T02:35:21.003Z,11.98
2023-07-10T02:37:48.096Z,10.68
2023-07-10T02:40:15.273Z,10.35
2023-07-10T02:42:42.614Z,9.90
2023-07-10T02:45:10.051Z,10.48
2023-07-10T02:47:37.466Z,9.38
2023-07-10T02:50:04.839Z,10.73
2023-07-10T02:52:32.082Z,10.45
2023-07-10T02:54:59.273Z,11.88
2023-07-10T02:57:26.693Z,19.30
2023-07-10T02:59:53.894Z,39.08
2023-07-10T03:02:21.231Z,74.88
2023-07-10T03:04:48.471Z,276.92
2023-07-10T03:07:16.175Z,370.05
2023-07-10T03:09:43.437Z,130.07
2023-07-10T03:12:11.685Z,127.82
2023-07-10T03:14:38.838Z,37.78
2023-07-10T03:17:06.212Z,27.08
2023-07-10T03:19:33.619Z,20.90
2023-07-10T03:22:00.764Z,21.80
2023-07-10T03:24:29.068Z,18.58
2023-07-10T03:26:56.064Z,19.23
2023-07-10T03:29:23.130Z,14.35
2023-07-10T03:31:50.373Z,15.82
2023-07-10T03:34:18.380Z,15.63
2023-07-10T03:36:46.670Z,20.05
2023-07-10T03:39:14.635Z,14.73
2023-07-10T03:41:42.077Z,14.85
2023-07-10T03:44:11.601Z,17.80
2023-07-10T03:46:38.884Z,18.67
2023-07-10T03:49:06.097Z,15.40
2023-07-10T03:51:33.360Z,14.05
2023-07-10T03:54:01.844Z,16.77
2023-07-10T03:56:28.851Z,19.17
2023-07-10T03:58:56.092Z,20.75
2023-07-10T04:01:23.405Z,19.40
2023-07-10T04:03:50.572Z,15.38
2023-07-10T04:06:19.983Z,15.30
2023-07-10T04:08:48.167Z,16.02
2023-07-10T04:11:28.114Z,21.60
2023-07-10T04:13:55.609Z,19.50
2023-07-10T04:16:25.885Z,17.17
2023-07-10T04:18:54.552Z,24.58
2023-07-10T04:21:28.962Z,26.77
2023-07-10T04:23:56.246Z,15.35
2023-07-10T04:26:34.330Z,18.55
2023-07-10T04:29:05.155Z,17.77
2023-07-10T04:31:33.338Z,17.77
2023-07-10T04:34:01.040Z,19.10
2023-07-10T04:36:28.253Z,18.73
2023-07-10T04:38:55.491Z,16.20
2023-07-10T04:41:24.354Z,19.13
2023-07-10T04:43:51.772Z,17.52
2023-07-10T04:46:20.201Z,16.38
2023-07-10T04:48:47.676Z,18.15
2023-07-10T04:51:17.377Z,14.93
2023-07-10T04:53:45.387Z,14.50
2023-07-10T04:56:14.939Z,14.55
2023-07-10T04:58:48.330Z,14.23
2023-07-10T05:01:15.549Z,13.48
2023-07-10T05:03:42.542Z,14.30
2023-07-10T05:06:09.840Z,16.48
2023-07-10T05:08:36.998Z,21.85
2023-07-10T05:11:04.282Z,16.02
2023-07-10T05:13:31.545Z,17.98
2023-07-10T05:16:00.142Z,18.88
2023-07-10T05:18:27.942Z,17.13
2023-07-10T05:20:55.601Z,13.70
2023-07-10T05:23:22.927Z,14.43
2023-07-10T05:26:06.643Z,15.73
2023-07-10T05:28:36.478Z,17.13
2023-07-10T05:31:05.147Z,16.92
2023-07-10T05:33:32.682Z,16.20
2023-07-10T05:36:04.988Z,15.88
2023-07-10T05:38:34.971Z,20.30
2023-07-10T05:41:02.911Z,17.40
2023-07-10T05:43:31.191Z,16.40
2023-07-10T05:45:59.148Z,17.77
2023-07-10T05:48:26.729Z,16.73
2023-07-10T05:50:54.541Z,17.52
2023-07-10T05:53:22.509Z,19.10
2023-07-10T05:55:59.129Z,20.70
2023-07-10T05:58:29.021Z,16.33
2023-07-10T06:00:58.171Z,16.35
2023-07-10T06:03:32.694Z,15.60
2023-07-10T06:06:05.975Z,17.52
2023-07-10T06:08:38.757Z,16.70
2023-07-10T06:11:08.521Z,15.05
2023-07-10T06:13:39.954Z,17.40
2023-07-10T06:16:10.708Z,13.90
2023-07-10T06:18:41.981Z,17.98
2023-07-10T06:21:17.157Z,15.18
2023-07-10T06:23:45.674Z,16.95
2023-07-10T06:26:14.235Z,17.10
2023-07-10T06:28:41.313Z,20.42
2023-07-10T06:31:11.602Z,14.68
2023-07-10T06:33:39.761Z,14.55
2023-07-10T06:36:08.058Z,14.93
2023-07-10T06:38:35.621Z,17.52
2023-07-10T06:41:03.134Z,14.77
2023-07-10T06:43:30.209Z,17.33
2023-07-10T06:45:58.196Z,14.45
2023-07-10T06:48:25.693Z,14.32
2023-07-10T06:50:54.563Z,16.83
2023-07-10T06:53:27.253Z,16.50
2023-07-10T06:56:01.948Z,12.88
2023-07-10T06:58:30.804Z,15.35
2023-07-10T07:00:59.576Z,15.13
2023-07-10T07:03:28.252Z,12.82
2023-07-10T07:05:57.214Z,12.75
2023-07-10T07:08:25.455Z,14.25
2023-07-10T07:10:54.424Z,13.95
2023-07-10T07:13:24.316Z,13.32
2023-07-10T07:15:53.034Z,11.65
2023-07-10T07:18:21.182Z,11.88
2023-07-10T07:20:48.719Z,11.35
2023-07-10T07:23:16.271Z,13.60
2023-07-10T07:25:43.453Z,12.02
2023-07-10T07:28:10.708Z,12.20
2023-07-10T07:30:37.881Z,8.77
2023-07-10T07:33:05.338Z,12.38
2023-07-10T07:35:33.305Z,10.52
2023-07-10T07:38:00.389Z,9.10
2023-07-10T07:40:27.401Z,8.32
2023-07-10T07:42:54.517Z,9.70
2023-07-10T07:45:22.041Z,8.63
2023-07-10T07:47:49.303Z,6.43
2023-07-10T07:50:16.721Z,9.77
2023-07-10T07:52:45.394Z,6.78
2023-07-10T07:55:13.289Z,7.70
2023-07-10T07:57:40.534Z,6.47
2023-07-10T08:00:10.545Z,8.25
2023-07-10T08:02:41.834Z,12.02
2023-07-10T08:05:24.076Z,6.20
2023-07-10T08:07:56.385Z,5.38
2023-07-10T08:10:23.833Z,6.05
2023-07-10T08:12:50.908Z,8.63
2023-07-10T08:15:21.082Z,7.05
2023-07-10T08:17:52.478Z,7.78
2023-07-10T08:20:20.757Z,7.50
2023-07-10T08:22:47.788Z,8.48
2023-07-10T08:25:14.863Z,8.73
2023-07-10T08:27:46.586Z,7.57
2023-07-10T08:30:14.909Z,8.27
2023-07-10T08:32:42.256Z,8.32
2023-07-10T08:35:09.736Z,6.65
2023-07-10T08:37:38.682Z,6.35
2023-07-10T08:40:21.814Z,6.45
2023-07-10T08:42:52.415Z,6.32
2023-07-10T08:45:36.327Z,5.85
2023-07-10T08:48:24.314Z,7.78
2023-07-10T08:50:51.804Z,9.63
2023-07-10T08:53:27.643Z,7.18
2023-07-10T08:56:26.803Z,9.48
2023-07-10T08:59:12.515Z,6.90
2023-07-10T09:01:44.775Z,7.88
2023-07-10T09:04:18.845Z,9.02
2023-07-10T09:06:59.464Z,6.32
2023-07-10T09:09:48.412Z,8.02
2023-07-10T09:12:42.918Z,6.53
2023-07-10T09:15:20.481Z,7.30
2023-07-10T09:18:06.013Z,6.95
2023-07-10T09:20:33.367Z,8.75
2023-07-10T09:23:12.063Z,9.55
2023-07-10T09:25:39.432Z,10.02
2023-07-10T09:28:06.639Z,7.57
2023-07-10T09:31:11.062Z,7.43
2023-07-10T09:33:45.768Z,5.95
2023-07-10T09:36:22.144Z,7.38
2023-07-10T09:38:50.969Z,11.00
2023-07-10T09:41:26.096Z,7.40
2023-07-10T09:43:58.463Z,5.90
2023-07-10T09:46:29.566Z,6.85
2023-07-10T09:48:59.518Z,8.75
2023-07-10T09:51:29.095Z,6.88
2023-07-10T09:54:07.850Z,8.93
2023-07-10T09:56:40.284Z,6.68
2023-07-10T09:59:20.337Z,7.78
2023-07-10T10:01:51.671Z,7.60
2023-07-10T10:04:30.436Z,7.72
2023-07-10T10:07:16.266Z,8.00
2023-07-10T10:09:43.714Z,7.85
2023-07-10T10:12:23.751Z,6.65
2023-07-10T10:15:11.273Z,8.52
2023-07-10T10:17:42.983Z,9.60
2023-07-10T10:22:44.141Z,7.80
2023-07-10T10:25:18.233Z,7.85
2023-07-10T10:28:02.117Z,8.60
2023-07-10T10:30:40.141Z,9.70
2023-07-10T10:33:35.657Z,8.98
2023-07-10T10:36:31.076Z,9.70
2023-07-10T10:39:10.679Z,7.63
2023-07-10T10:41:47.389Z,9.63
2023-07-10T10:44:33.326Z,11.55
2023-07-10T10:47:06.606Z,6.85
2023-07-10T10:49:59.092Z,6.68
2023-07-10T10:52:41.463Z,5.15
2023-07-10T10:55:39.749Z,6.72
2023-07-10T10:58:43.394Z,6.15
2023-07-10T11:01:26.828Z,7.88
2023-07-10T11:03:59.113Z,6.57
2023-07-10T11:06:50.013Z,7.55
2023-07-10T11:09:42.661Z,7.72
2023-07-10T11:12:22.990Z,6.75
2023-07-10T11:14:55.938Z,11.63
2023-07-10T11:17:23.640Z,8.38
2023-07-10T11:19:51.706Z,6.18
2023-07-10T11:22:33.150Z,7.55
2023-07-10T11:25:03.173Z,7.90
2023-07-10T11:27:37.120Z,5.38
2023-07-10T11:30:14.348Z,8.18
2023-07-10T11:33:15.819Z,7.05
2023-07-10T11:36:14.092Z,8.30
2023-07-10T11:38:58.896Z,7.50
2023-07-10T11:41:30.373Z,8.88
2023-07-10T11:44:15.866Z,5.07
2023-07-10T11:47:06.506Z,4.72
2023-07-10T11:49:37.132Z,4.82
2023-07-10T11:52:31.760Z,6.35
2023-07-10T11:54:58.682Z,6.15
2023-07-10T11:57:34.935Z,4.97
2023-07-10T12:00:21.800Z,7.65
2023-07-10T12:02:54.213Z,5.10
2023-07-10T12:05:38.920Z,7.97
2023-07-10T12:08:09.058Z,6.35
2023-07-10T12:10:41.104Z,6.30
2023-07-10T12:13:32.108Z,6.47
2023-07-10T12:16:11.489Z,5.32
2023-07-10T12:18:41.486Z,8.60
2023-07-10T12:21:35.201Z,7.57
2023-07-10T12:24:03.940Z,6.32
2023-07-10T12:29:03.738Z,6.10
2023-07-10T12:31:30.934Z,5.32
2023-07-10T12:34:02.023Z,6.78
2023-07-10T12:36:33.005Z,5.35
2023-07-10T12:41:40.839Z,6.78
2023-07-10T12:44:08.485Z,6.90
2023-07-10T12:46:36.320Z,6.63
2023-07-10T12:49:12.992Z,5.53
2023-07-10T12:51:43.899Z,7.15
2023-07-10T12:54:26.444Z,5.68
2023-07-10T12:56:55.519Z,9.88
2023-07-10T12:59:33.119Z,6.03
2023-07-10T13:02:02.635Z,4.20
2023-07-10T13:04:40.330Z,7.53
2023-07-10T13:07:29.056Z,5.85
2023-07-10T13:10:25.185Z,5.33
2023-07-10T13:12:55.191Z,7.85
2023-07-10T13:15:28.867Z,7.87
2023-07-10T13:17:57.121Z,8.52
2023-07-10T13:20:27.389Z,5.38
2023-07-10T13:22:57.956Z,9.90
2023-07-10T13:25:30.533Z,6.38
2023-07-10T13:27:57.786Z,6.90
2023-07-10T13:30:26.600Z,7.15
2023-07-10T13:32:56.853Z,7.65
2023-07-10T13:35:24.052Z,6.63
2023-07-10T13:37:51.246Z,5.32
2023-07-10T13:40:23.697Z,11.60
2023-07-10T13:42:50.942Z,7.18
2023-07-10T13:45:17.958Z,5.72
2023-07-10T13:47:45.195Z,4.65
2023-07-10T13:50:17.770Z,8.65
2023-07-10T13:52:45.167Z,6.32
2023-07-10T13:55:14.668Z,7.18
2023-07-10T13:57:41.999Z,8.52
2023-07-10T14:00:14.844Z,7.07
2023-07-10T14:02:44.604Z,6.70
2023-07-10T14:05:14.372Z,6.53
2023-07-10T14:07:43.995Z,9.73
2023-07-10T14:10:16.597Z,7.00
2023-07-10T14:12:46.836Z,6.22
2023-07-10T14:15:16.648Z,7.78
2023-07-10T14:17:43.913Z,7.00
2023-07-10T14:20:20.900Z,8.18
2023-07-10T14:22:48.134Z,6.95
2023-07-10T14:25:19.067Z,5.40
2023-07-10T14:27:46.514Z,8.43
2023-07-10T14:30:21.571Z,9.10
2023-07-10T14:32:49.607Z,7.63
2023-07-10T14:35:21.828Z,8.50
2023-07-10T14:37:52.154Z,6.68
2023-07-10T14:40:23.206Z,6.70
2023-07-10T14:45:19.143Z,8.27
2023-07-10T14:47:47.495Z,6.38
2023-07-10T14:50:15.084Z,5.40
2023-07-10T14:52:44.762Z,8.07
2023-07-10T14:55:17.250Z,5.30
2023-07-10T14:57:44.524Z,7.82
2023-07-10T15:00:25.232Z,6.35
2023-07-10T15:02:53.642Z,8.73
2023-07-10T15:05:25.091Z,4.65
2023-07-10T15:07:57.020Z,6.00
2023-07-10T15:10:28.202Z,7.45
2023-07-10T15:12:58.002Z,8.55
2023-07-10T15:15:28.318Z,7.18
2023-07-10T15:17:55.497Z,7.07
2023-07-10T15:20:22.712Z,6.70
2023-07-10T15:22:49.917Z,7.55
2023-07-10T15:25:21.952Z,7.15
2023-07-10T15:27:50.744Z,5.57
2023-07-10T15:30:23.092Z,7.32
2023-07-10T15:32:52.275Z,6.20
2023-07-10T15:35:21.324Z,8.73
2023-07-10T15:37:48.942Z,7.28
2023-07-10T15:40:52.346Z,5.80
2023-07-10T15:43:54.656Z,9.52
2023-07-10T15:46:36.905Z,7.03
2023-07-10T15:49:41.995Z,7.60
2023-07-10T15:52:52.107Z,10.80
2023-07-10T15:55:35.572Z,8.35
2023-07-10T15:58:22.336Z,6.70
2023-07-10T16:01:09.726Z,8.68
2023-07-10T16:03:41.631Z,6.78
2023-07-10T16:06:16.648Z,6.13
2023-07-10T16:08:54.231Z,9.10
2023-07-10T16:11:30.451Z,7.47
2023-07-10T16:15:10.562Z,7.35
2023-07-10T16:20:45.152Z,8.73
2023-07-10T16:23:29.353Z,9.23
2023-07-10T16:26:12.730Z,6.65
2023-07-10T16:28:50.617Z,6.35
2023-07-10T16:31:21.832Z,6.72
2023-07-10T16:33:49.423Z,6.95
2023-07-10T16:36:18.150Z,6.55
2023-07-10T16:38:45.593Z,7.32
2023-07-10T16:41:18.342Z,7.43
2023-07-10T16:43:46.103Z,8.35
2023-07-10T16:46:14.072Z,10.13
2023-07-10T16:48:42.156Z,8.27
2023-07-10T16:51:26.047Z,6.70
2023-07-10T16:53:55.066Z,6.82
2023-07-10T16:56:23.149Z,8.50
2023-07-10T16:58:50.163Z,5.97
2023-07-10T17:01:28.805Z,7.13
2023-07-10T17:03:58.958Z,7.18
2023-07-10T17:06:32.890Z,8.45
2023-07-10T17:09:19.280Z,6.20
2023-07-10T17:12:06.060Z,7.28
2023-07-10T17:22:43.940Z,5.90
2023-07-10T17:27:43.514Z,9.18
2023-07-10T17:30:19.580Z,10.23
2023-07-10T17:32:47.239Z,8.48
2023-07-10T17:35:22.072Z,10.50
2023-07-10T17:37:53.394Z,8.10
2023-07-10T17:40:31.438Z,9.57
2023-07-10T17:43:07.618Z,9.05
2023-07-10T17:45:39.544Z,9.65
2023-07-10T17:48:24.670Z,7.07
2023-07-10T17:50:52.491Z,9.38
2023-07-10T17:53:27.307Z,11.10
2023-07-10T17:56:01.021Z,11.85
2023-07-10T17:58:30.966Z,7.43
2023-07-10T18:00:58.171Z,8.60
2023-07-10T18:03:29.652Z,9.15
2023-07-10T18:06:04.431Z,7.53
2023-07-10T18:08:43.061Z,9.02
2023-07-10T18:11:27.803Z,7.93
2023-07-10T18:13:54.946Z,8.43
2023-07-10T18:16:22.097Z,9.45
2023-07-10T18:18:49.550Z,10.40
2023-07-10T18:21:27.724Z,8.40
2023-07-10T18:23:56.070Z,13.68
2023-07-10T18:26:32.962Z,9.88
2023-07-10T18:29:00.033Z,9.82
2023-07-10T18:31:30.229Z,11.98
2023-07-10T18:34:00.139Z,10.63
2023-07-10T18:36:30.503Z,10.68
2023-07-10T18:38:57.564Z,9.38
2023-07-10T18:41:32.694Z,7.57
2023-07-10T18:44:02.181Z,7.10
2023-07-10T18:46:32.507Z,8.48
2023-07-10T18:48:59.804Z,11.73
2023-07-10T18:51:30.688Z,8.02
2023-07-10T18:54:01.337Z,8.98
2023-07-10T18:56:28.408Z,8.13
2023-07-10T18:58:55.727Z,9.00
2023-07-10T19:01:22.844Z,9.82
2023-07-10T19:03:49.918Z,9.95
2023-07-10T19:06:41.113Z,9.95
2023-07-10T19:09:22.568Z,9.90
2023-07-10T19:11:50.121Z,8.07
2023-07-10T19:14:23.497Z,8.60
2023-07-10T19:16:57.777Z,10.68
2023-07-10T19:19:28.962Z,9.93
2023-07-10T19:21:59.215Z,9.52
2023-07-10T19:24:28.805Z,8.48
2023-07-10T19:26:59.356Z,8.65
2023-07-10T19:29:26.777Z,7.75
2023-07-10T19:31:58.297Z,10.23
2023-07-10T19:37:46.432Z,11.10
2023-07-10T19:43:45.461Z,11.00
2023-07-10T19:46:25.634Z,8.43
2023-07-10T19:48:55.085Z,10.05
2023-07-10T19:55:55.679Z,13.88
2023-07-10T19:59:19.109Z,11.40
2023-07-10T20:01:51.450Z,11.15
2023-07-10T20:05:12.880Z,9.93
2023-07-10T20:08:14.234Z,9.57
2023-07-10T20:10:58.339Z,13.65
2023-07-10T20:14:10.457Z,11.85
2023-07-10T20:16:38.088Z,9.65
2023-07-10T20:19:13.994Z,11.15
2023-07-10T20:21:41.087Z,11.60
2023-07-10T20:24:13.991Z,10.43
2023-07-10T20:26:41.620Z,8.38
2023-07-10T20:29:18.155Z,8.30
2023-07-10T20:32:10.312Z,9.68
2023-07-10T20:37:41.263Z,10.52
2023-07-10T20:40:22.154Z,10.30
2023-07-10T20:43:02.403Z,8.43
2023-07-10T20:45:34.703Z,10.47
2023-07-10T20:48:03.274Z,11.15
2023-07-10T20:50:30.424Z,12.43
2023-07-10T20:53:00.750Z,9.23
2023-07-10T20:55:27.715Z,10.73
2023-07-10T20:57:54.898Z,8.07
2023-07-10T21:00:22.006Z,17.50
2023-07-10T21:02:49.170Z,9.20
2023-07-10T21:05:16.642Z,8.73
2023-07-10T21:07:44.571Z,11.13
2023-07-10T21:10:12.927Z,7.47
2023-07-10T21:12:40.512Z,10.35
2023-07-10T21:15:13.650Z,12.27
2023-07-10T21:17:40.799Z,10.48
2023-07-10T21:20:14.981Z,10.82
2023-07-10T21:22:42.003Z,12.35
2023-07-10T21:25:09.382Z,11.20
2023-07-10T21:27:37.965Z,9.68
2023-07-10T21:30:17.079Z,9.57
2023-07-10T21:32:44.365Z,10.07
2023-07-10T21:35:26.215Z,9.80
2023-07-10T21:37:53.252Z,13.43
2023-07-10T21:40:20.526Z,12.18
2023-07-10T21:42:48.249Z,10.27
2023-07-10T21:45:16.107Z,10.50
2023-07-10T21:47:43.210Z,9.13
2023-07-10T21:50:15.950Z,11.88
2023-07-10T21:52:43.100Z,13.20
2023-07-10T21:55:14.490Z,12.77
2023-07-10T21:57:42.413Z,11.93
2023-07-10T22:00:16.950Z,12.57
2023-07-10T22:02:44.901Z,11.07
2023-07-10T22:05:16.818Z,12.07
2023-07-10T22:07:44.228Z,10.52
2023-07-10T22:10:36.495Z,10.15
2023-07-10T22:13:15.487Z,9.98
2023-07-10T22:15:53.439Z,11.35
2023-07-10T22:18:29.887Z,10.25
2023-07-10T22:21:20.191Z,9.93
2023-07-10T22:23:58.858Z,9.32
2023-07-10T22:26:28.375Z,10.70
2023-07-10T22:28:56.134Z,12.05
2023-07-10T22:31:25.616Z,9.70
2023-07-10T22:33:55.444Z,10.27
2023-07-10T22:36:22.462Z,9.68
2023-07-10T22:38:49.883Z,10.13
2023-07-10T22:41:39.299Z,11.95
2023-07-10T22:44:11.486Z,12.30
2023-07-10T22:46:41.041Z,13.13
2023-07-10T22:49:12.152Z,12.07
2023-07-10T22:51:39.381Z,11.93
2023-07-10T22:54:06.982Z,8.57
2023-07-10T22:56:37.393Z,12.77
2023-07-10T22:59:04.870Z,9.63
2023-07-10T23:01:32.084Z,8.82
2023-07-10T23:03:59.504Z,9.13
2023-07-10T23:06:32.448Z,11.27
2023-07-10T23:09:00.495Z,11.32
2023-07-10T23:11:28.210Z,12.35
2023-07-10T23:13:55.603Z,13.35
2023-07-10T23:16:27.509Z,10.85
2023-07-10T23:18:57.591Z,10.40
2023-07-10T23:21:26.525Z,12.02
2023-07-10T23:23:54.471Z,12.70
2023-07-10T23:26:24.177Z,11.38
2023-07-10T23:28:51.669Z,11.23
2023-07-10T23:31:30.750Z,9.98
2023-07-10T23:33:58.460Z,10.50
2023-07-10T23:36:28.217Z,9.57
2023-07-10T23:39:02.607Z,16.17
2023-07-10T23:41:30.340Z,12.38
2023-07-10T23:43:58.030Z,11.95
2023-07-10T23:46:25.263Z,13.65
2023-07-10T23:48:52.454Z,12.07
2023-07-10T23:51:19.486Z,10.43
2023-07-10T23:53:46.878Z,10.45
2023-07-10T23:56:15.776Z,9.73
2023-07-10T23:58:42.923Z,14.15
